Time;durP1;ratioP1;P1;durP2;ratioP2;P2;SDS_P1;SDS_P2;PMS_P1;PMS_P2;Temp;Humidity;BMP_temperature;BMP_pressure;BME280_temperature;BME280_humidity;BME280_pressure;Samples;Min_cycle;Max_cycle;Signal;HPM_P1;HPM_P2
2021/01/26 00:00:57;;;;;;;12.52;7.70;;;;;;;;;;4975711;28;20031;-66
2021/01/26 00:03:23;;;;;;;12.90;6.75;;;;;;;;;;4976037;28;20097;-67
2021/01/26 00:05:50;;;;;;;12.65;7.15;;;;;;;;;;4975307;28;20093;-66
2021/01/26 00:08:16;;;;;;;14.30;7.90;;;;;;;;;;4975750;28;20031;-65
2021/01/26 00:10:42;;;;;;;15.50;8.50;;;;;;;;;;4975433;28;20049;-65
2021/01/26 00:13:09;;;;;;;17.13;9.23;;;;;;;;;;4975549;28;20463;-66
2021/01/26 00:15:35;;;;;;;17.50;9.10;;;;;;;;;;4975443;28;20474;-67
2021/01/26 00:18:01;;;;;;;14.98;8.40;;;;;;;;;;4975369;28;20065;-67
2021/01/26 00:20:28;;;;;;;14.07;9.10;;;;;;;;;;4974979;28;20118;-67
2021/01/26 00:22:54;;;;;;;12.15;8.50;;;;;;;;;;4975459;28;20389;-67
2021/01/26 00:25:33;;;;;;;16.27;8.85;;;;;;;;;;4975527;28;20074;-65
2021/01/26 00:28:00;;;;;;;14.80;9.02;;;;;;;;;;4975492;28;20033;-66
2021/01/26 00:30:28;;;;;;;14.50;9.35;;;;;;;;;;4975222;28;20423;-66
2021/01/26 00:32:55;;;;;;;13.68;8.80;;;;;;;;;;4975423;28;20031;-66
2021/01/26 00:35:23;;;;;;;14.93;9.02;;;;;;;;;;4975112;28;20536;-66
2021/01/26 00:37:49;;;;;;;14.43;8.77;;;;;;;;;;4975168;28;20034;-66
2021/01/26 00:40:16;;;;;;;13.00;8.00;;;;;;;;;;4974740;28;20031;-67
2021/01/26 00:42:42;;;;;;;12.38;7.03;;;;;;;;;;4974990;28;20425;-67
2021/01/26 00:45:09;;;;;;;11.15;7.07;;;;;;;;;;4975147;28;20023;-65
2021/01/26 00:47:35;;;;;;;9.35;6.65;;;;;;;;;;4974928;28;20054;-65
2021/01/26 00:50:02;;;;;;;11.32;7.00;;;;;;;;;;4974874;28;20536;-65
2021/01/26 00:52:28;;;;;;;13.23;7.63;;;;;;;;;;4975341;28;20039;-65
2021/01/26 00:54:54;;;;;;;13.02;8.50;;;;;;;;;;4974835;28;20059;-67
2021/01/26 00:57:20;;;;;;;19.27;11.48;;;;;;;;;;4974807;28;20027;-67
2021/01/26 00:59:49;;;;;;;19.13;12.93;;;;;;;;;;4974907;28;20041;-65
2021/01/26 01:02:19;;;;;;;20.67;13.80;;;;;;;;;;4974860;28;20123;-66
2021/01/26 01:04:45;;;;;;;22.35;14.65;;;;;;;;;;4974609;28;20474;-65
2021/01/26 01:07:12;;;;;;;22.58;14.43;;;;;;;;;;4974566;28;20046;-66
2021/01/26 01:09:38;;;;;;;21.90;13.95;;;;;;;;;;4974617;28;20031;-66
2021/01/26 01:12:05;;;;;;;19.38;13.88;;;;;;;;;;4975129;28;20102;-66
2021/01/26 01:14:31;;;;;;;22.55;15.52;;;;;;;;;;4974310;28;20030;-66
2021/01/26 01:16:57;;;;;;;22.48;15.93;;;;;;;;;;4957603;28;20054;-66
2021/01/26 01:19:24;;;;;;;23.27;16.52;;;;;;;;;;4974629;28;20031;-66
2021/01/26 01:21:50;;;;;;;27.05;17.60;;;;;;;;;;4974299;28;20098;-66
2021/01/26 01:24:17;;;;;;;28.00;18.27;;;;;;;;;;4974892;28;20067;-66
2021/01/26 01:26:43;;;;;;;25.70;17.85;;;;;;;;;;4974841;28;20031;-66
2021/01/26 01:29:12;;;;;;;23.05;16.77;;;;;;;;;;4974348;28;20063;-66
2021/01/26 01:31:38;;;;;;;25.55;17.65;;;;;;;;;;4976313;28;20019;-67
2021/01/26 01:34:08;;;;;;;24.77;16.48;;;;;;;;;;4978664;28;20545;-65
2021/01/26 01:36:35;;;;;;;20.33;14.10;;;;;;;;;;4978330;28;20026;-65
2021/01/26 01:39:01;;;;;;;17.45;12.90;;;;;;;;;;4978357;28;20394;-65
2021/01/26 01:41:31;;;;;;;17.20;12.38;;;;;;;;;;4978527;28;20030;-67
2021/01/26 01:43:57;;;;;;;17.35;12.00;;;;;;;;;;4977968;28;20030;-65
2021/01/26 01:46:25;;;;;;;18.10;12.45;;;;;;;;;;4978422;28;20050;-65
2021/01/26 01:48:53;;;;;;;18.70;12.80;;;;;;;;;;4978622;28;20023;-65
2021/01/26 01:51:21;;;;;;;17.88;11.85;;;;;;;;;;4978111;28;20130;-65
2021/01/26 01:53:57;;;;;;;18.27;12.32;;;;;;;;;;4978559;28;20030;-66
2021/01/26 01:56:29;;;;;;;18.98;13.32;;;;;;;;;;4978184;28;20425;-65
2021/01/26 01:58:57;;;;;;;18.38;12.63;;;;;;;;;;4978793;28;20027;-66
2021/01/26 02:01:26;;;;;;;16.95;12.02;;;;;;;;;;4978012;28;20030;-66
2021/01/26 02:03:53;;;;;;;17.05;11.23;;;;;;;;;;4977891;28;20102;-65
2021/01/26 02:06:21;;;;;;;16.10;11.18;;;;;;;;;;4977848;28;20490;-66
2021/01/26 02:08:56;;;;;;;15.45;10.57;;;;;;;;;;4977960;28;20121;-65
2021/01/26 02:11:22;;;;;;;17.20;10.95;;;;;;;;;;4977935;28;20030;-66
2021/01/26 02:13:49;;;;;;;15.43;10.32;;;;;;;;;;4978209;28;20023;-65
2021/01/26 02:16:27;;;;;;;18.33;11.20;;;;;;;;;;4977651;28;20027;-65
2021/01/26 02:19:11;;;;;;;17.40;11.02;;;;;;;;;;4977616;28;20061;-65
2021/01/26 02:21:55;;;;;;;18.85;11.82;;;;;;;;;;4977834;28;20034;-65
2021/01/26 02:24:40;;;;;;;15.40;11.05;;;;;;;;;;4977527;28;20105;-65
2021/01/26 02:27:24;;;;;;;16.35;11.48;;;;;;;;;;4977465;28;20051;-65
2021/01/26 02:29:50;;;;;;;14.70;10.50;;;;;;;;;;4977633;28;20027;-65
2021/01/26 02:32:36;;;;;;;14.25;10.23;;;;;;;;;;4977106;28;20031;-64
2021/01/26 02:35:21;;;;;;;14.95;9.85;;;;;;;;;;4977687;28;20026;-65
2021/01/26 02:37:56;;;;;;;15.25;9.90;;;;;;;;;;4977492;28;20426;-65
2021/01/26 02:40:24;;;;;;;14.60;9.68;;;;;;;;;;4976995;28;20467;-65
2021/01/26 02:43:05;;;;;;;15.27;10.02;;;;;;;;;;4977407;28;20055;-65
2021/01/26 02:45:31;;;;;;;13.77;9.98;;;;;;;;;;4976891;28;20027;-65
2021/01/26 02:48:21;;;;;;;14.90;10.27;;;;;;;;;;4977346;28;20089;-65
2021/01/26 02:50:58;;;;;;;14.75;10.23;;;;;;;;;;4969185;28;20049;-66
2021/01/26 02:53:47;;;;;;;15.85;10.73;;;;;;;;;;4976931;28;20031;-65
2021/01/26 02:56:13;;;;;;;15.82;11.48;;;;;;;;;;4969062;28;20062;-65
2021/01/26 02:58:51;;;;;;;16.75;11.98;;;;;;;;;;4976878;28;20023;-65
2021/01/26 03:01:17;;;;;;;17.20;12.18;;;;;;;;;;4976576;28;20023;-65
2021/01/26 03:03:46;;;;;;;19.08;12.43;;;;;;;;;;4976739;28;20494;-65
2021/01/26 03:06:23;;;;;;;18.33;12.50;;;;;;;;;;4977036;28;20031;-65
2021/01/26 03:08:49;;;;;;;18.95;13.50;;;;;;;;;;4976601;28;20095;-66
2021/01/26 03:11:31;;;;;;;18.98;13.38;;;;;;;;;;4976528;28;20107;-65
2021/01/26 03:14:00;;;;;;;19.58;13.57;;;;;;;;;;4976265;28;20103;-66
2021/01/26 03:16:27;;;;;;;20.77;14.18;;;;;;;;;;4976510;28;20103;-64
2021/01/26 03:18:54;;;;;;;20.10;13.93;;;;;;;;;;4976526;28;20030;-66
2021/01/26 03:21:22;;;;;;;19.80;14.50;;;;;;;;;;4976989;28;20029;-66
2021/01/26 03:24:01;;;;;;;19.63;13.55;;;;;;;;;;4976670;28;20050;-66
2021/01/26 03:26:27;;;;;;;18.63;13.80;;;;;;;;;;4959496;28;20023;-66
2021/01/26 03:28:56;;;;;;;17.77;12.43;;;;;;;;;;4976222;28;20035;-65
2021/01/26 03:31:25;;;;;;;17.17;12.10;;;;;;;;;;4976559;28;20035;-65
2021/01/26 03:33:53;;;;;;;17.23;12.20;;;;;;;;;;4976554;28;20125;-67
2021/01/26 03:36:19;;;;;;;17.55;12.10;;;;;;;;;;4976201;28;20097;-67
2021/01/26 03:38:45;;;;;;;19.02;12.95;;;;;;;;;;4976449;28;20489;-66
2021/01/26 03:41:12;;;;;;;22.40;14.38;;;;;;;;;;4976386;28;20029;-66
2021/01/26 03:43:38;;;;;;;18.25;12.45;;;;;;;;;;4976043;28;20031;-66
2021/01/26 03:46:23;;;;;;;17.80;12.10;;;;;;;;;;4976058;28;20047;-66
2021/01/26 03:48:58;;;;;;;18.80;12.63;;;;;;;;;;4976175;28;20027;-66
2021/01/26 03:51:47;;;;;;;17.40;11.85;;;;;;;;;;4976468;28;20050;-66
2021/01/26 03:54:13;;;;;;;18.50;13.02;;;;;;;;;;4947776;28;20506;-66
2021/01/26 03:56:45;;;;;;;19.90;13.38;;;;;;;;;;4975834;28;20466;-66
2021/01/26 03:59:17;;;;;;;18.45;13.27;;;;;;;;;;4976373;28;20026;-66
2021/01/26 04:01:51;;;;;;;19.38;13.57;;;;;;;;;;4976343;28;20031;-66
2021/01/26 04:04:26;;;;;;;19.63;14.05;;;;;;;;;;4975704;28;20026;-66
2021/01/26 04:06:54;;;;;;;21.67;15.25;;;;;;;;;;4976207;28;20027;-66
2021/01/26 04:09:25;;;;;;;20.35;14.93;;;;;;;;;;4975525;28;20037;-66
2021/01/26 04:11:57;;;;;;;22.00;14.73;;;;;;;;;;4975782;28;20034;-65
2021/01/26 04:14:25;;;;;;;22.05;14.48;;;;;;;;;;4976117;28;20073;-66
2021/01/26 04:16:53;;;;;;;21.20;15.23;;;;;;;;;;4975671;28;20038;-67
2021/01/26 04:19:34;;;;;;;25.48;16.13;;;;;;;;;;4975752;28;20035;-66
2021/01/26 04:22:01;;;;;;;22.17;15.32;;;;;;;;;;4975406;28;20102;-66
2021/01/26 04:24:32;;;;;;;20.38;14.73;;;;;;;;;;4975029;28;20378;-66
2021/01/26 04:27:00;;;;;;;23.50;14.90;;;;;;;;;;4975873;28;20459;-66
2021/01/26 04:29:26;;;;;;;23.38;16.17;;;;;;;;;;4975448;28;20121;-66
2021/01/26 04:31:53;;;;;;;24.48;16.90;;;;;;;;;;4974910;28;20497;-66
2021/01/26 04:34:19;;;;;;;25.25;17.17;;;;;;;;;;4975508;28;20023;-66
2021/01/26 04:36:45;;;;;;;27.45;18.45;;;;;;;;;;4975397;28;20109;-66
2021/01/26 04:39:11;;;;;;;29.83;18.73;;;;;;;;;;4975114;28;20042;-66
2021/01/26 04:41:52;;;;;;;30.27;19.50;;;;;;;;;;4975587;28;20023;-66
2021/01/26 04:44:37;;;;;;;28.17;18.95;;;;;;;;;;4975046;28;20030;-66
2021/01/26 04:47:06;;;;;;;25.73;17.20;;;;;;;;;;4975157;28;20054;-66
2021/01/26 04:49:52;;;;;;;29.88;17.60;;;;;;;;;;4975454;28;20027;-66
2021/01/26 04:52:36;;;;;;;28.23;18.27;;;;;;;;;;4974317;28;20062;-66
2021/01/26 04:55:24;;;;;;;29.23;18.13;;;;;;;;;;4974886;28;20066;-64
2021/01/26 04:57:53;;;;;;;28.08;18.20;;;;;;;;;;4975458;28;20406;-66
2021/01/26 05:00:22;;;;;;;29.50;18.20;;;;;;;;;;4974541;28;20383;-66
2021/01/26 05:02:54;;;;;;;29.15;17.10;;;;;;;;;;4975324;28;20054;-65
2021/01/26 05:05:21;;;;;;;27.63;17.80;;;;;;;;;;4974707;28;20023;-66
2021/01/26 05:07:51;;;;;;;26.58;17.30;;;;;;;;;;4974699;28;20526;-66
2021/01/26 05:10:33;;;;;;;27.58;17.88;;;;;;;;;;4975025;28;20030;-66
2021/01/26 05:13:03;;;;;;;27.73;17.85;;;;;;;;;;4974534;28;20482;-65
2021/01/26 05:15:31;;;;;;;28.73;18.10;;;;;;;;;;4974965;28;20101;-66
2021/01/26 05:18:00;;;;;;;29.70;18.65;;;;;;;;;;4974698;28;20031;-66
2021/01/26 05:20:28;;;;;;;28.05;17.02;;;;;;;;;;4974400;28;20433;-66
2021/01/26 05:23:13;;;;;;;27.65;18.00;;;;;;;;;;4974985;28;20027;-65
2021/01/26 05:25:39;;;;;;;28.83;17.67;;;;;;;;;;4974580;28;20386;-66
2021/01/26 05:28:06;;;;;;;29.05;18.42;;;;;;;;;;4974491;28;20031;-65
2021/01/26 05:30:34;;;;;;;25.65;17.77;;;;;;;;;;4974750;28;20086;-66
2021/01/26 05:33:08;;;;;;;27.27;17.58;;;;;;;;;;4974718;28;20109;-66
2021/01/26 05:35:38;;;;;;;30.20;18.05;;;;;;;;;;4974196;28;20504;-66
2021/01/26 05:38:04;;;;;;;28.17;17.40;;;;;;;;;;4975305;28;20077;-66
2021/01/26 05:40:44;;;;;;;26.92;17.77;;;;;;;;;;4974375;28;20027;-66
2021/01/26 05:43:16;;;;;;;27.80;18.33;;;;;;;;;;4974778;28;20027;-66
2021/01/26 05:45:47;;;;;;;28.00;17.42;;;;;;;;;;4974862;28;20462;-66
2021/01/26 05:48:14;;;;;;;27.27;17.63;;;;;;;;;;4974459;28;20094;-65
2021/01/26 05:50:41;;;;;;;31.30;17.92;;;;;;;;;;4974500;28;20058;-66
2021/01/26 05:53:16;;;;;;;26.27;16.23;;;;;;;;;;4974639;28;20030;-65
2021/01/26 05:55:56;;;;;;;24.13;16.65;;;;;;;;;;4974265;28;20109;-66
2021/01/26 05:58:25;;;;;;;25.60;16.48;;;;;;;;;;4974583;28;20162;-66
2021/01/26 06:00:56;;;;;;;24.38;15.95;;;;;;;;;;4974288;28;20055;-66
2021/01/26 06:03:22;;;;;;;26.38;16.15;;;;;;;;;;4974285;28;20030;-65
2021/01/26 06:06:06;;;;;;;25.02;16.52;;;;;;;;;;4974213;28;20027;-66
2021/01/26 06:08:34;;;;;;;24.35;15.90;;;;;;;;;;4974149;28;20483;-66
2021/01/26 06:11:14;;;;;;;22.80;15.48;;;;;;;;;;4973993;28;20421;-65
2021/01/26 06:13:40;;;;;;;25.27;16.65;;;;;;;;;;4974478;28;20030;-66
2021/01/26 06:16:11;;;;;;;27.65;16.52;;;;;;;;;;4974317;28;20030;-65
2021/01/26 06:18:38;;;;;;;25.98;16.92;;;;;;;;;;4977529;28;20030;-66
2021/01/26 06:21:10;;;;;;;23.38;15.57;;;;;;;;;;4977812;28;20031;-67
2021/01/26 06:23:36;;;;;;;24.33;15.20;;;;;;;;;;4964354;28;20030;-66
2021/01/26 06:26:04;;;;;;;22.30;14.60;;;;;;;;;;4956839;29;20027;-66
2021/01/26 06:28:49;;;;;;;25.42;15.93;;;;;;;;;;4957058;29;20486;-66
2021/01/26 06:31:34;;;;;;;27.10;15.93;;;;;;;;;;4956106;29;20043;-71
2021/01/26 06:34:02;;;;;;;22.88;14.93;;;;;;;;;;4956942;29;20028;-68
2021/01/26 06:36:28;;;;;;;20.15;13.75;;;;;;;;;;4956565;29;20083;-71
2021/01/26 06:39:13;;;;;;;21.48;15.20;;;;;;;;;;4956577;29;20042;-70
2021/01/26 06:41:42;;;;;;;21.50;14.38;;;;;;;;;;4954409;29;20019;-67
2021/01/26 06:44:21;;;;;;;22.70;14.57;;;;;;;;;;4956264;29;20031;-69
2021/01/26 06:47:05;;;;;;;20.20;14.30;;;;;;;;;;4954637;29;20050;-68
2021/01/26 06:49:37;;;;;;;20.48;14.73;;;;;;;;;;4955156;29;20031;-71
2021/01/26 06:52:33;;;;;;;21.65;14.75;;;;;;;;;;4954002;29;20062;-68
2021/01/26 06:55:19;;;;;;;23.67;15.15;;;;;;;;;;4878270;29;20037;-68
2021/01/26 06:57:48;;;;;;;21.00;14.55;;;;;;;;;;4859428;29;20052;-68
2021/01/26 07:00:14;;;;;;;24.23;15.00;;;;;;;;;;4878768;29;20075;-66
2021/01/26 07:02:58;;;;;;;20.85;14.85;;;;;;;;;;4878426;29;20094;-67
2021/01/26 07:05:32;;;;;;;22.23;15.25;;;;;;;;;;4878604;29;20489;-66
2021/01/26 07:08:07;;;;;;;20.90;14.80;;;;;;;;;;4879733;29;20025;-66
2021/01/26 07:10:36;;;;;;;25.55;15.98;;;;;;;;;;4880034;29;20047;-67
2021/01/26 07:13:02;;;;;;;23.67;15.95;;;;;;;;;;4878993;29;20041;-66
2021/01/26 07:15:39;;;;;;;23.45;15.07;;;;;;;;;;4879490;29;20448;-67
2021/01/26 07:18:13;;;;;;;21.92;14.68;;;;;;;;;;4879435;29;20045;-65
2021/01/26 07:20:58;;;;;;;22.50;15.90;;;;;;;;;;4879202;29;20076;-66
2021/01/26 07:23:43;;;;;;;24.02;15.32;;;;;;;;;;4877900;29;20070;-65
2021/01/26 07:26:24;;;;;;;22.83;14.88;;;;;;;;;;4878569;29;20033;-65
2021/01/26 07:28:53;;;;;;;26.52;14.75;;;;;;;;;;4877947;29;20054;-65
2021/01/26 07:31:42;;;;;;;24.25;15.65;;;;;;;;;;4916480;29;20035;-65
2021/01/26 07:34:27;;;;;;;26.33;16.73;;;;;;;;;;4953760;29;20027;-64
2021/01/26 07:37:00;;;;;;;24.88;15.57;;;;;;;;;;4957269;29;20019;-64
2021/01/26 07:39:55;;;;;;;25.25;16.45;;;;;;;;;;4956959;29;20364;-66
2021/01/26 07:42:32;;;;;;;22.40;14.60;;;;;;;;;;4947734;29;20039;-67
2021/01/26 07:45:07;;;;;;;25.30;15.68;;;;;;;;;;4956681;29;20508;-65
2021/01/26 07:47:33;;;;;;;25.15;15.32;;;;;;;;;;4956298;29;20491;-65
2021/01/26 07:50:05;;;;;;;23.17;14.57;;;;;;;;;;4956627;29;20038;-64
2021/01/26 07:52:33;;;;;;;20.48;12.20;;;;;;;;;;4956136;28;20030;-65
2021/01/26 07:55:14;;;;;;;24.80;14.77;;;;;;;;;;4938935;29;20078;-67
2021/01/26 07:57:47;;;;;;;24.08;14.98;;;;;;;;;;4956624;29;20079;-68
2021/01/26 08:00:13;;;;;;;26.52;14.85;;;;;;;;;;4956797;29;20038;-69
2021/01/26 08:02:43;;;;;;;27.10;15.40;;;;;;;;;;4956115;29;20050;-66
2021/01/26 08:05:13;;;;;;;24.88;15.50;;;;;;;;;;4956442;29;20379;-66
2021/01/26 08:07:40;;;;;;;25.85;15.35;;;;;;;;;;4956292;29;20315;-66
2021/01/26 08:10:06;;;;;;;24.33;14.90;;;;;;;;;;4955844;29;20034;-66
2021/01/26 08:12:32;;;;;;;24.00;14.90;;;;;;;;;;4953666;29;20124;-67
2021/01/26 08:15:13;;;;;;;25.25;14.98;;;;;;;;;;4955027;29;20019;-67
2021/01/26 08:17:39;;;;;;;27.23;15.70;;;;;;;;;;4956063;29;20023;-67
2021/01/26 08:20:12;;;;;;;28.33;16.17;;;;;;;;;;4955404;29;20023;-67
2021/01/26 08:22:43;;;;;;;25.77;15.38;;;;;;;;;;4955516;28;20032;-67
2021/01/26 08:25:09;;;;;;;25.10;15.07;;;;;;;;;;4955580;28;20026;-66
2021/01/26 08:27:38;;;;;;;26.50;16.33;;;;;;;;;;4955112;29;20035;-68
2021/01/26 08:30:05;;;;;;;27.17;16.20;;;;;;;;;;4955804;29;20374;-68
2021/01/26 08:32:33;;;;;;;28.20;16.27;;;;;;;;;;4955805;29;20471;-68
2021/01/26 08:35:01;;;;;;;25.60;15.30;;;;;;;;;;4954804;29;20027;-67
2021/01/26 08:37:44;;;;;;;30.60;18.10;;;;;;;;;;4956092;29;20051;-67
2021/01/26 08:40:33;;;;;;;27.25;15.88;;;;;;;;;;4955508;28;20027;-66
2021/01/26 08:43:02;;;;;;;25.40;14.95;;;;;;;;;;4929500;29;20053;-69
2021/01/26 08:45:28;;;;;;;25.00;15.35;;;;;;;;;;4953085;29;20022;-70
2021/01/26 08:47:56;;;;;;;26.30;15.75;;;;;;;;;;4955589;28;20055;-70
2021/01/26 08:50:25;;;;;;;26.02;15.27;;;;;;;;;;4955087;29;20031;-70
2021/01/26 08:52:51;;;;;;;24.98;15.40;;;;;;;;;;4955429;29;20027;-74
2021/01/26 08:55:34;;;;;;;28.60;15.85;;;;;;;;;;4951862;29;20030;-71
2021/01/26 08:58:00;;;;;;;26.70;15.55;;;;;;;;;;4952118;29;20110;-68
2021/01/26 09:00:29;;;;;;;28.60;16.05;;;;;;;;;;4954435;29;20062;-66
2021/01/26 09:02:55;;;;;;;26.35;16.30;;;;;;;;;;4937240;29;20038;-67
2021/01/26 09:05:37;;;;;;;25.17;15.82;;;;;;;;;;4951449;29;20019;-69
2021/01/26 09:08:07;;;;;;;27.63;16.23;;;;;;;;;;4951955;29;20042;-69
2021/01/26 09:10:41;;;;;;;28.80;17.23;;;;;;;;;;4952801;29;20034;-71
2021/01/26 09:13:30;;;;;;;26.10;15.32;;;;;;;;;;4954609;29;20078;-71
2021/01/26 09:15:59;;;;;;;27.33;15.68;;;;;;;;;;4937827;29;20030;-69
2021/01/26 09:18:27;;;;;;;29.65;16.27;;;;;;;;;;4954628;29;20023;-72
2021/01/26 09:20:57;;;;;;;26.15;16.85;;;;;;;;;;4937915;29;20027;-70
2021/01/26 09:23:24;;;;;;;26.95;16.02;;;;;;;;;;4955492;29;20041;-70
2021/01/26 09:25:50;;;;;;;28.35;16.83;;;;;;;;;;4955291;29;20328;-68
2021/01/26 09:28:17;;;;;;;30.83;17.00;;;;;;;;;;4955159;29;20471;-68
2021/01/26 09:30:45;;;;;;;34.60;20.38;;;;;;;;;;4955246;29;20050;-67
2021/01/26 09:33:14;;;;;;;31.35;18.17;;;;;;;;;;4954660;29;20063;-71
2021/01/26 09:35:42;;;;;;;27.00;15.80;;;;;;;;;;4955025;29;20023;-71
2021/01/26 09:38:15;;;;;;;27.88;16.27;;;;;;;;;;4954803;29;20027;-69
2021/01/26 09:40:46;;;;;;;30.90;17.40;;;;;;;;;;4954700;29;20039;-67
2021/01/26 09:43:14;;;;;;;32.03;17.70;;;;;;;;;;4954711;29;20103;-68
2021/01/26 09:45:41;;;;;;;28.08;16.25;;;;;;;;;;4954698;29;20058;-68
2021/01/26 09:48:07;;;;;;;27.60;16.25;;;;;;;;;;4955209;29;20050;-67
2021/01/26 09:50:33;;;;;;;27.63;16.05;;;;;;;;;;4954592;29;20031;-67
2021/01/26 09:53:01;;;;;;;27.30;15.95;;;;;;;;;;4956547;28;20080;-68
2021/01/26 09:55:28;;;;;;;28.08;16.00;;;;;;;;;;4958623;29;20519;-68
2021/01/26 09:57:56;;;;;;;31.45;15.75;;;;;;;;;;4958459;29;20543;-67
2021/01/26 10:00:23;;;;;;;31.52;17.67;;;;;;;;;;4958092;29;20379;-67
2021/01/26 10:02:53;;;;;;;29.65;16.35;;;;;;;;;;4958193;29;20030;-68
2021/01/26 10:05:21;;;;;;;30.45;17.77;;;;;;;;;;4958825;29;20031;-67
2021/01/26 10:08:03;;;;;;;32.70;17.17;;;;;;;;;;4958328;29;20023;-67
2021/01/26 10:10:29;;;;;;;;;;;;;;;;;;4958184;29;20031;-68
2021/01/26 10:12:55;;;;;;;34.42;18.45;;;;;;;;;;4958576;29;19917;-67
2021/01/26 10:15:24;;;;;;;30.15;17.27;;;;;;;;;;4958492;29;20024;-69
2021/01/26 10:17:53;;;;;;;31.60;17.50;;;;;;;;;;4958404;29;20061;-68
2021/01/26 10:20:24;;;;;;;31.27;16.98;;;;;;;;;;4958045;29;20028;-71
2021/01/26 10:22:50;;;;;;;26.48;16.02;;;;;;;;;;4957799;29;20403;-69
2021/01/26 10:25:17;;;;;;;27.77;15.02;;;;;;;;;;4958271;29;20074;-67
2021/01/26 10:27:43;;;;;;;30.23;17.50;;;;;;;;;;4957550;29;20027;-67
2021/01/26 10:30:15;;;;;;;30.58;16.80;;;;;;;;;;4958149;29;20031;-71
2021/01/26 10:32:48;;;;;;;30.85;16.80;;;;;;;;;;4958427;29;20027;-69
2021/01/26 10:35:36;;;;;;;34.70;17.20;;;;;;;;;;4957471;29;20031;-68
2021/01/26 10:38:21;;;;;;;39.25;18.63;;;;;;;;;;4958227;29;20023;-66
2021/01/26 10:40:47;;;;;;;33.58;20.02;;;;;;;;;;4957856;29;20027;-67
2021/01/26 10:43:23;;;;;;;35.90;19.70;;;;;;;;;;4940726;29;20032;-67
2021/01/26 10:45:53;;;;;;;49.22;26.80;;;;;;;;;;4957943;29;20074;-68
2021/01/26 10:48:22;;;;;;;37.88;19.80;;;;;;;;;;4957453;29;20387;-65
2021/01/26 10:50:49;;;;;;;44.28;24.10;;;;;;;;;;4953112;29;20024;-63
2021/01/26 10:53:34;;;;;;;56.33;24.73;;;;;;;;;;4957344;29;20035;-64
2021/01/26 10:56:01;;;;;;;67.72;31.35;;;;;;;;;;4956585;29;20055;-67
2021/01/26 10:58:27;;;;;;;77.93;33.42;;;;;;;;;;4957612;29;20019;-66
2021/01/26 11:00:53;;;;;;;36.72;22.48;;;;;;;;;;4955371;29;20479;-68
2021/01/26 11:03:20;;;;;;;29.60;16.52;;;;;;;;;;4956389;28;20019;-69
2021/01/26 11:05:46;;;;;;;30.05;16.95;;;;;;;;;;4956929;29;20027;-67
2021/01/26 11:08:12;;;;;;;30.60;17.73;;;;;;;;;;4957278;29;20529;-69
2021/01/26 11:10:38;;;;;;;32.42;18.55;;;;;;;;;;4954427;29;20115;-68
2021/01/26 11:13:04;;;;;;;32.22;17.25;;;;;;;;;;4956009;29;20046;-68
2021/01/26 11:15:32;;;;;;;29.27;17.33;;;;;;;;;;4957035;29;20066;-73
2021/01/26 11:18:02;;;;;;;24.42;14.25;;;;;;;;;;4956891;29;20027;-68
2021/01/26 11:20:28;;;;;;;24.80;14.57;;;;;;;;;;4956972;29;20031;-68
2021/01/26 11:22:54;;;;;;;31.58;17.50;;;;;;;;;;4957295;29;20101;-66
2021/01/26 11:25:22;;;;;;;27.25;15.82;;;;;;;;;;4956793;29;20371;-67
2021/01/26 11:27:48;;;;;;;33.53;18.45;;;;;;;;;;4956952;29;20020;-66
2021/01/26 11:30:15;;;;;;;24.83;14.48;;;;;;;;;;4956845;29;20035;-64
2021/01/26 11:32:42;;;;;;;25.92;15.70;;;;;;;;;;4956682;29;20042;-67
2021/01/26 11:35:08;;;;;;;34.15;18.42;;;;;;;;;;4957145;29;20411;-67
2021/01/26 11:37:34;;;;;;;34.67;17.63;;;;;;;;;;4956117;29;20031;-65
2021/01/26 11:40:00;;;;;;;27.38;15.60;;;;;;;;;;4956737;29;20059;-69
2021/01/26 11:42:27;;;;;;;26.60;15.13;;;;;;;;;;4956821;29;20023;-65
2021/01/26 11:44:53;;;;;;;23.48;13.18;;;;;;;;;;4939220;29;20452;-67
2021/01/26 11:47:19;;;;;;;29.25;15.90;;;;;;;;;;4956889;29;20051;-67
2021/01/26 11:49:45;;;;;;;24.85;13.48;;;;;;;;;;4955351;29;20069;-70
2021/01/26 11:52:11;;;;;;;29.58;16.58;;;;;;;;;;4956376;29;20082;-67
2021/01/26 11:54:37;;;;;;;26.88;15.18;;;;;;;;;;4955477;29;20443;-67
2021/01/26 11:57:03;;;;;;;26.77;14.95;;;;;;;;;;4956058;29;20038;-67
2021/01/26 11:59:29;;;;;;;27.88;16.35;;;;;;;;;;4956245;29;20123;-67
2021/01/26 12:01:55;;;;;;;27.35;14.70;;;;;;;;;;4956466;29;20027;-67
2021/01/26 12:04:22;;;;;;;26.95;15.07;;;;;;;;;;4956193;29;20055;-65
2021/01/26 12:06:48;;;;;;;27.38;14.90;;;;;;;;;;4956116;29;20026;-67
2021/01/26 12:09:14;;;;;;;36.05;17.48;;;;;;;;;;4955994;29;20534;-69
2021/01/26 12:11:40;;;;;;;30.58;17.67;;;;;;;;;;4956312;29;20031;-66
2021/01/26 12:14:07;;;;;;;32.00;18.38;;;;;;;;;;4956045;29;20023;-65
2021/01/26 12:16:34;;;;;;;31.45;17.17;;;;;;;;;;4954859;28;20104;-67
2021/01/26 12:19:00;;;;;;;32.13;17.83;;;;;;;;;;4954938;29;20034;-67
2021/01/26 12:21:26;;;;;;;31.52;16.40;;;;;;;;;;4954488;29;20486;-67
2021/01/26 12:23:52;;;;;;;30.95;15.10;;;;;;;;;;4955000;29;20028;-68
2021/01/26 12:26:19;;;;;;;25.83;14.65;;;;;;;;;;4955287;29;20046;-66
2021/01/26 12:28:45;;;;;;;27.67;16.10;;;;;;;;;;4954455;29;20459;-64
2021/01/26 12:31:11;;;;;;;29.75;16.02;;;;;;;;;;4953864;29;20379;-65
2021/01/26 12:33:37;;;;;;;29.20;16.35;;;;;;;;;;4955697;29;20031;-65
2021/01/26 12:36:04;;;;;;;35.55;18.52;;;;;;;;;;4955653;29;20055;-64
2021/01/26 12:38:31;;;;;;;30.83;16.85;;;;;;;;;;4955814;29;20032;-67
2021/01/26 12:40:57;;;;;;;27.30;15.45;;;;;;;;;;4955273;29;20023;-66
2021/01/26 12:43:23;;;;;;;29.90;15.55;;;;;;;;;;4955746;28;20031;-66
2021/01/26 12:45:49;;;;;;;29.23;15.65;;;;;;;;;;4955248;29;20035;-67
2021/01/26 12:48:15;;;;;;;29.08;16.15;;;;;;;;;;4955613;29;20032;-68
2021/01/26 12:50:43;;;;;;;30.10;16.30;;;;;;;;;;4955407;29;20043;-67
2021/01/26 12:53:09;;;;;;;30.55;17.65;;;;;;;;;;4955395;29;20039;-66
2021/01/26 12:55:36;;;;;;;27.08;15.65;;;;;;;;;;4955428;29;20031;-66
2021/01/26 12:58:02;;;;;;;29.27;16.83;;;;;;;;;;4955397;29;20459;-69
2021/01/26 13:00:28;;;;;;;32.65;17.90;;;;;;;;;;4955165;29;20125;-67
2021/01/26 13:02:55;;;;;;;32.40;17.25;;;;;;;;;;4955538;29;20031;-66
2021/01/26 13:05:22;;;;;;;24.50;15.35;;;;;;;;;;4955675;29;20027;-66
2021/01/26 13:07:48;;;;;;;29.80;16.88;;;;;;;;;;4955473;29;20027;-65
2021/01/26 13:10:14;;;;;;;29.52;17.65;;;;;;;;;;4955638;29;20415;-67
2021/01/26 13:12:40;;;;;;;30.50;16.67;;;;;;;;;;4955300;29;20469;-66
2021/01/26 13:15:07;;;;;;;32.05;18.35;;;;;;;;;;4955459;29;20505;-67
2021/01/26 13:17:34;;;;;;;30.15;17.33;;;;;;;;;;4955622;29;20352;-65
2021/01/26 13:20:00;;;;;;;29.80;16.65;;;;;;;;;;4954999;29;20538;-66
2021/01/26 13:22:26;;;;;;;33.03;17.63;;;;;;;;;;4955328;29;20045;-67
2021/01/26 13:24:52;;;;;;;27.83;16.10;;;;;;;;;;4955237;29;20031;-67
2021/01/26 13:27:18;;;;;;;30.98;16.50;;;;;;;;;;4955647;28;20106;-64
2021/01/26 13:29:44;;;;;;;27.73;15.25;;;;;;;;;;4959480;29;20031;-67
2021/01/26 13:32:11;;;;;;;28.90;16.90;;;;;;;;;;4959412;29;20094;-66
2021/01/26 13:34:37;;;;;;;33.45;17.50;;;;;;;;;;4958886;29;20050;-64
2021/01/26 13:37:04;;;;;;;36.20;19.38;;;;;;;;;;4959151;29;20142;-65
2021/01/26 13:39:30;;;;;;;38.65;20.13;;;;;;;;;;4959257;29;20035;-69
2021/01/26 13:41:58;;;;;;;37.08;19.92;;;;;;;;;;4959033;29;20034;-65
2021/01/26 13:44:25;;;;;;;30.83;17.05;;;;;;;;;;4941505;29;20390;-66
2021/01/26 13:46:51;;;;;;;31.77;17.92;;;;;;;;;;4941715;29;20051;-66
2021/01/26 13:49:18;;;;;;;35.33;18.63;;;;;;;;;;4958602;29;20110;-65
2021/01/26 13:51:44;;;;;;;45.55;25.27;;;;;;;;;;4958514;29;20046;-65
2021/01/26 13:54:10;;;;;;;34.55;18.13;;;;;;;;;;4958316;29;20030;-67
2021/01/26 13:56:37;;;;;;;31.90;16.50;;;;;;;;;;4958992;29;20023;-66
2021/01/26 13:59:03;;;;;;;26.17;14.95;;;;;;;;;;4958643;29;20114;-70
2021/01/26 14:01:29;;;;;;;29.65;16.13;;;;;;;;;;4958503;29;20027;-68
2021/01/26 14:03:55;;;;;;;30.70;14.70;;;;;;;;;;4958392;29;20490;-68
2021/01/26 14:06:22;;;;;;;25.48;13.38;;;;;;;;;;4958607;29;20031;-66
2021/01/26 14:08:49;;;;;;;30.92;15.65;;;;;;;;;;4958372;29;20051;-68
2021/01/26 14:11:15;;;;;;;24.35;15.25;;;;;;;;;;4958499;29;20558;-69
2021/01/26 14:13:41;;;;;;;28.13;13.73;;;;;;;;;;4958282;29;20031;-69
2021/01/26 14:16:09;;;;;;;28.27;14.32;;;;;;;;;;4958003;29;20494;-67
2021/01/26 14:18:35;;;;;;;29.70;16.20;;;;;;;;;;4958478;29;20459;-67
2021/01/26 14:21:01;;;;;;;26.33;14.52;;;;;;;;;;4940802;29;20476;-69
2021/01/26 14:23:28;;;;;;;23.40;13.68;;;;;;;;;;4957980;29;20027;-67
2021/01/26 14:25:54;;;;;;;24.33;15.02;;;;;;;;;;4958004;29;20027;-65
2021/01/26 14:28:20;;;;;;;26.70;15.20;;;;;;;;;;4958231;29;20114;-68
2021/01/26 14:30:46;;;;;;;22.48;13.30;;;;;;;;;;4957584;29;20027;-65
2021/01/26 14:33:14;;;;;;;23.52;13.55;;;;;;;;;;4958521;29;20035;-67
2021/01/26 14:35:40;;;;;;;33.30;15.02;;;;;;;;;;4957803;29;20495;-65